sensor_id;sensor_type;location;lat;lon;timestamp;temperature;humidity
28835;DHT22;15969;51.536;11.884;2022-11-15T00:00:51;4.80;99.90
28835;DHT22;15969;51.536;11.884;2022-11-15T00:03:19;4.80;99.90
28835;DHT22;15969;51.536;11.884;2022-11-15T00:05:46;4.80;99.90
28835;DHT22;15969;51.536;11.884;2022-11-15T00:08:12;4.80;99.90
28835;DHT22;15969;51.536;11.884;2022-11-15T00:10:38;4.90;99.90
28835;DHT22;15969;51.536;11.884;2022-11-15T00:13:12;4.90;99.90
28835;DHT22;15969;51.536;11.884;2022-11-15T00:15:39;4.90;99.90
28835;DHT22;15969;51.536;11.884;2022-11-15T00:18:10;5.00;99.90
28835;DHT22;15969;51.536;11.884;2022-11-15T00:20:37;5.00;99.90
28835;DHT22;15969;51.536;11.884;2022-11-15T00:23:04;5.00;99.90
28835;DHT22;15969;51.536;11.884;2022-11-15T00:25:30;5.00;99.90
28835;DHT22;15969;51.536;11.884;2022-11-15T00:27:57;5.00;99.90
28835;DHT22;15969;51.536;11.884;2022-11-15T00:30:23;5.00;99.90
28835;DHT22;15969;51.536;11.884;2022-11-15T00:32:49;5.00;99.90
28835;DHT22;15969;51.536;11.884;2022-11-15T00:35:15;4.90;99.90
28835;DHT22;15969;51.536;11.884;2022-11-15T00:37:41;4.90;99.90
28835;DHT22;15969;51.536;11.884;2022-11-15T00:40:08;4.80;99.90
28835;DHT22;15969;51.536;11.884;2022-11-15T00:42:36;4.90;99.90
28835;DHT22;15969;51.536;11.884;2022-11-15T00:45:02;4.80;99.90
28835;DHT22;15969;51.536;11.884;2022-11-15T00:47:27;4.70;99.90
28835;DHT22;15969;51.536;11.884;2022-11-15T00:49:53;4.80;99.90
28835;DHT22;15969;51.536;11.884;2022-11-15T00:52:19;4.80;99.90
28835;DHT22;15969;51.536;11.884;2022-11-15T00:54:44;4.80;99.90
28835;DHT22;15969;51.536;11.884;2022-11-15T00:57:10;4.90;99.90
28835;DHT22;15969;51.536;11.884;2022-11-15T00:59:36;4.90;99.90
28835;DHT22;15969;51.536;11.884;2022-11-15T01:02:01;5.00;99.90
28835;DHT22;15969;51.536;11.884;2022-11-15T01:04:27;5.10;99.90
28835;DHT22;15969;51.536;11.884;2022-11-15T01:06:53;5.10;99.90
28835;DHT22;15969;51.536;11.884;2022-11-15T01:09:19;5.20;99.90
28835;DHT22;15969;51.536;11.884;2022-11-15T01:11:45;5.30;99.90
28835;DHT22;15969;51.536;11.884;2022-11-15T01:14:10;5.30;99.90
28835;DHT22;15969;51.536;11.884;2022-11-15T01:16:36;5.30;99.90
28835;DHT22;15969;51.536;11.884;2022-11-15T01:19:02;5.30;99.90
28835;DHT22;15969;51.536;11.884;2022-11-15T01:21:28;5.30;99.90
28835;DHT22;15969;51.536;11.884;2022-11-15T01:23:56;5.30;99.90
28835;DHT22;15969;51.536;11.884;2022-11-15T01:26:22;5.30;99.90
28835;DHT22;15969;51.536;11.884;2022-11-15T01:28:49;5.30;99.90
28835;DHT22;15969;51.536;11.884;2022-11-15T01:31:19;5.30;99.90
28835;DHT22;15969;51.536;11.884;2022-11-15T01:33:46;5.20;99.90
28835;DHT22;15969;51.536;11.884;2022-11-15T01:36:18;5.20;99.90
28835;DHT22;15969;51.536;11.884;2022-11-15T01:38:47;5.10;99.90
28835;DHT22;15969;51.536;11.884;2022-11-15T01:41:20;5.00;99.90
28835;DHT22;15969;51.536;11.884;2022-11-15T01:43:56;5.00;99.90
28835;DHT22;15969;51.536;11.884;2022-11-15T01:46:46;4.90;99.90
28835;DHT22;15969;51.536;11.884;2022-11-15T01:49:15;4.90;99.90
28835;DHT22;15969;51.536;11.884;2022-11-15T01:51:43;4.80;99.90
28835;DHT22;15969;51.536;11.884;2022-11-15T01:54:12;4.80;99.90
28835;DHT22;15969;51.536;11.884;2022-11-15T01:56:50;4.80;99.90
28835;DHT22;15969;51.536;11.884;2022-11-15T01:59:18;4.70;99.90
28835;DHT22;15969;51.536;11.884;2022-11-15T02:01:45;4.70;99.90
28835;DHT22;15969;51.536;11.884;2022-11-15T02:04:18;4.70;99.90
28835;DHT22;15969;51.536;11.884;2022-11-15T02:06:48;4.70;99.90
28835;DHT22;15969;51.536;11.884;2022-11-15T02:09:14;4.60;99.90
28835;DHT22;15969;51.536;11.884;2022-11-15T02:11:40;4.70;99.90
28835;DHT22;15969;51.536;11.884;2022-11-15T02:14:07;4.80;99.90
28835;DHT22;15969;51.536;11.884;2022-11-15T02:19:32;4.70;99.90
28835;DHT22;15969;51.536;11.884;2022-11-15T02:22:35;4.80;99.90
28835;DHT22;15969;51.536;11.884;2022-11-15T02:26:11;4.90;99.90
28835;DHT22;15969;51.536;11.884;2022-11-15T02:29:10;4.90;99.90
28835;DHT22;15969;51.536;11.884;2022-11-15T02:31:55;4.90;99.90
28835;DHT22;15969;51.536;11.884;2022-11-15T02:38:04;4.90;99.90
28835;DHT22;15969;51.536;11.884;2022-11-15T02:44:19;4.80;99.90
28835;DHT22;15969;51.536;11.884;2022-11-15T02:46:54;4.80;99.90
28835;DHT22;15969;51.536;11.884;2022-11-15T02:49:41;4.70;99.90
28835;DHT22;15969;51.536;11.884;2022-11-15T02:52:09;4.60;99.90
28835;DHT22;15969;51.536;11.884;2022-11-15T02:54:35;4.60;99.90
28835;DHT22;15969;51.536;11.884;2022-11-15T02:57:14;4.70;99.90
28835;DHT22;15969;51.536;11.884;2022-11-15T03:00:05;4.70;99.90
28835;DHT22;15969;51.536;11.884;2022-11-15T03:08:34;4.60;99.90
28835;DHT22;15969;51.536;11.884;2022-11-15T03:11:12;4.80;99.90
28835;DHT22;15969;51.536;11.884;2022-11-15T03:16:44;4.80;99.90
28835;DHT22;15969;51.536;11.884;2022-11-15T03:20:15;4.80;99.90
28835;DHT22;15969;51.536;11.884;2022-11-15T03:22:22;4.80;99.90
28835;DHT22;15969;51.536;11.884;2022-11-15T03:24:56;4.80;99.90
28835;DHT22;15969;51.536;11.884;2022-11-15T03:27:26;4.80;99.90
28835;DHT22;15969;51.536;11.884;2022-11-15T03:30:05;4.90;99.90
28835;DHT22;15969;51.536;11.884;2022-11-15T03:32:37;4.90;99.90
28835;DHT22;15969;51.536;11.884;2022-11-15T03:35:08;4.90;99.90
28835;DHT22;15969;51.536;11.884;2022-11-15T03:41:07;4.80;99.90
28835;DHT22;15969;51.536;11.884;2022-11-15T03:43:57;4.80;99.90
28835;DHT22;15969;51.536;11.884;2022-11-15T03:49:28;4.70;99.90
28835;DHT22;15969;51.536;11.884;2022-11-15T03:51:58;4.60;99.90
28835;DHT22;15969;51.536;11.884;2022-11-15T03:54:24;4.50;99.90
28835;DHT22;15969;51.536;11.884;2022-11-15T03:56:50;4.50;99.90
28835;DHT22;15969;51.536;11.884;2022-11-15T03:59:15;4.50;99.90
28835;DHT22;15969;51.536;11.884;2022-11-15T04:01:41;4.50;99.90
28835;DHT22;15969;51.536;11.884;2022-11-15T04:04:07;4.40;99.90
28835;DHT22;15969;51.536;11.884;2022-11-15T04:06:33;4.40;99.90
28835;DHT22;15969;51.536;11.884;2022-11-15T04:08:58;4.40;99.90
28835;DHT22;15969;51.536;11.884;2022-11-15T04:11:24;4.40;99.90
28835;DHT22;15969;51.536;11.884;2022-11-15T04:13:50;4.30;99.90
28835;DHT22;15969;51.536;11.884;2022-11-15T04:16:15;4.20;99.90
28835;DHT22;15969;51.536;11.884;2022-11-15T04:18:41;4.10;99.90
28835;DHT22;15969;51.536;11.884;2022-11-15T04:21:08;4.10;99.90
28835;DHT22;15969;51.536;11.884;2022-11-15T04:23:52;4.00;99.90
28835;DHT22;15969;51.536;11.884;2022-11-15T04:26:21;4.20;99.90
28835;DHT22;15969;51.536;11.884;2022-11-15T04:28:47;4.20;99.90
28835;DHT22;15969;51.536;11.884;2022-11-15T04:31:32;4.30;99.90
28835;DHT22;15969;51.536;11.884;2022-11-15T04:33:58;4.20;99.90
28835;DHT22;15969;51.536;11.884;2022-11-15T04:36:24;4.30;99.90
28835;DHT22;15969;51.536;11.884;2022-11-15T04:39:09;4.30;99.90
28835;DHT22;15969;51.536;11.884;2022-11-15T04:41:34;4.30;99.90
28835;DHT22;15969;51.536;11.884;2022-11-15T04:44:00;4.20;99.90
28835;DHT22;15969;51.536;11.884;2022-11-15T04:46:26;4.20;99.90
28835;DHT22;15969;51.536;11.884;2022-11-15T04:48:53;4.10;99.90
28835;DHT22;15969;51.536;11.884;2022-11-15T04:51:19;4.00;99.90
28835;DHT22;15969;51.536;11.884;2022-11-15T04:53:45;4.00;99.90
28835;DHT22;15969;51.536;11.884;2022-11-15T04:56:11;4.00;99.90
28835;DHT22;15969;51.536;11.884;2022-11-15T04:58:37;4.00;99.90
28835;DHT22;15969;51.536;11.884;2022-11-15T05:01:12;4.00;99.90
28835;DHT22;15969;51.536;11.884;2022-11-15T05:03:40;4.00;99.90
28835;DHT22;15969;51.536;11.884;2022-11-15T05:06:25;4.00;99.90
28835;DHT22;15969;51.536;11.884;2022-11-15T05:08:51;4.00;99.90
28835;DHT22;15969;51.536;11.884;2022-11-15T05:11:17;4.10;99.90
28835;DHT22;15969;51.536;11.884;2022-11-15T05:13:42;4.10;99.90
28835;DHT22;15969;51.536;11.884;2022-11-15T05:16:08;4.10;99.90
28835;DHT22;15969;51.536;11.884;2022-11-15T05:18:34;4.10;99.90
28835;DHT22;15969;51.536;11.884;2022-11-15T05:21:04;4.00;99.90
28835;DHT22;15969;51.536;11.884;2022-11-15T05:23:31;3.90;99.90
28835;DHT22;15969;51.536;11.884;2022-11-15T05:26:01;3.90;99.90
28835;DHT22;15969;51.536;11.884;2022-11-15T05:28:28;3.80;99.90
28835;DHT22;15969;51.536;11.884;2022-11-15T05:31:03;3.80;99.90
28835;DHT22;15969;51.536;11.884;2022-11-15T05:33:34;3.80;99.90
28835;DHT22;15969;51.536;11.884;2022-11-15T05:36:09;3.80;99.90
28835;DHT22;15969;51.536;11.884;2022-11-15T05:38:36;3.80;99.90
28835;DHT22;15969;51.536;11.884;2022-11-15T05:41:02;3.80;99.90
28835;DHT22;15969;51.536;11.884;2022-11-15T05:43:30;3.80;99.90
28835;DHT22;15969;51.536;11.884;2022-11-15T05:45:59;3.80;99.90
28835;DHT22;15969;51.536;11.884;2022-11-15T05:48:26;3.70;99.90
28835;DHT22;15969;51.536;11.884;2022-11-15T05:50:52;3.70;99.90
28835;DHT22;15969;51.536;11.884;2022-11-15T05:53:19;3.70;99.90
28835;DHT22;15969;51.536;11.884;2022-11-15T05:55:47;3.70;99.90
28835;DHT22;15969;51.536;11.884;2022-11-15T05:58:12;3.70;99.90
28835;DHT22;15969;51.536;11.884;2022-11-15T06:00:38;3.80;99.90
28835;DHT22;15969;51.536;11.884;2022-11-15T06:03:04;3.90;99.90
28835;DHT22;15969;51.536;11.884;2022-11-15T06:05:30;3.90;99.90
28835;DHT22;15969;51.536;11.884;2022-11-15T06:07:58;3.90;99.90
28835;DHT22;15969;51.536;11.884;2022-11-15T06:10:24;3.90;99.90
28835;DHT22;15969;51.536;11.884;2022-11-15T06:13:03;3.90;99.90
28835;DHT22;15969;51.536;11.884;2022-11-15T06:15:31;3.90;99.90
28835;DHT22;15969;51.536;11.884;2022-11-15T06:17:57;3.90;99.90
28835;DHT22;15969;51.536;11.884;2022-11-15T06:20:28;3.90;99.90
28835;DHT22;15969;51.536;11.884;2022-11-15T06:23:02;3.80;99.90
28835;DHT22;15969;51.536;11.884;2022-11-15T06:25:30;3.90;99.90
28835;DHT22;15969;51.536;11.884;2022-11-15T06:27:57;3.90;99.90
28835;DHT22;15969;51.536;11.884;2022-11-15T06:30:24;3.90;99.90
28835;DHT22;15969;51.536;11.884;2022-11-15T06:32:50;3.90;99.90
28835;DHT22;15969;51.536;11.884;2022-11-15T06:35:17;3.90;99.90
28835;DHT22;15969;51.536;11.884;2022-11-15T06:37:42;3.90;99.90
28835;DHT22;15969;51.536;11.884;2022-11-15T06:40:09;3.90;99.90
28835;DHT22;15969;51.536;11.884;2022-11-15T06:42:35;3.90;99.90
28835;DHT22;15969;51.536;11.884;2022-11-15T06:45:02;3.80;99.90
28835;DHT22;15969;51.536;11.884;2022-11-15T06:47:28;3.90;99.90
28835;DHT22;15969;51.536;11.884;2022-11-15T06:49:53;3.90;99.90
28835;DHT22;15969;51.536;11.884;2022-11-15T06:52:19;3.80;99.90
28835;DHT22;15969;51.536;11.884;2022-11-15T06:54:45;3.90;99.90
28835;DHT22;15969;51.536;11.884;2022-11-15T06:57:11;3.90;99.90
28835;DHT22;15969;51.536;11.884;2022-11-15T06:59:37;3.80;99.90
28835;DHT22;15969;51.536;11.884;2022-11-15T07:02:03;3.70;99.90
28835;DHT22;15969;51.536;11.884;2022-11-15T07:04:28;3.80;99.90
28835;DHT22;15969;51.536;11.884;2022-11-15T07:06:54;3.80;99.90
28835;DHT22;15969;51.536;11.884;2022-11-15T07:09:20;3.90;99.90
28835;DHT22;15969;51.536;11.884;2022-11-15T07:11:45;4.00;99.90
28835;DHT22;15969;51.536;11.884;2022-11-15T07:14:11;3.90;99.90
28835;DHT22;15969;51.536;11.884;2022-11-15T07:16:37;4.00;99.90
28835;DHT22;15969;51.536;11.884;2022-11-15T07:19:03;4.10;99.90
28835;DHT22;15969;51.536;11.884;2022-11-15T07:21:29;4.20;99.90
28835;DHT22;15969;51.536;11.884;2022-11-15T07:23:55;4.30;99.90
28835;DHT22;15969;51.536;11.884;2022-11-15T07:26:20;4.40;99.90
28835;DHT22;15969;51.536;11.884;2022-11-15T07:28:46;4.50;99.90
28835;DHT22;15969;51.536;11.884;2022-11-15T07:31:12;4.70;99.90
28835;DHT22;15969;51.536;11.884;2022-11-15T07:33:37;4.90;99.90
28835;DHT22;15969;51.536;11.884;2022-11-15T07:36:05;5.00;99.90
28835;DHT22;15969;51.536;11.884;2022-11-15T07:38:33;5.10;99.90
28835;DHT22;15969;51.536;11.884;2022-11-15T07:41:01;5.10;99.90
28835;DHT22;15969;51.536;11.884;2022-11-15T07:43:28;5.20;99.90
28835;DHT22;15969;51.536;11.884;2022-11-15T07:45:55;5.30;99.90
28835;DHT22;15969;51.536;11.884;2022-11-15T07:48:22;5.40;99.90
28835;DHT22;15969;51.536;11.884;2022-11-15T07:50:48;5.50;99.90
28835;DHT22;15969;51.536;11.884;2022-11-15T07:53:13;5.60;99.90
28835;DHT22;15969;51.536;11.884;2022-11-15T07:55:40;5.70;99.90
28835;DHT22;15969;51.536;11.884;2022-11-15T07:58:09;5.70;99.90
28835;DHT22;15969;51.536;11.884;2022-11-15T08:00:36;5.80;99.90
28835;DHT22;15969;51.536;11.884;2022-11-15T08:05:36;6.00;99.90
28835;DHT22;15969;51.536;11.884;2022-11-15T08:08:03;6.10;99.90
28835;DHT22;15969;51.536;11.884;2022-11-15T08:10:30;6.20;99.90
28835;DHT22;15969;51.536;11.884;2022-11-15T08:13:00;6.30;99.90
28835;DHT22;15969;51.536;11.884;2022-11-15T08:15:27;6.40;99.90
28835;DHT22;15969;51.536;11.884;2022-11-15T08:17:55;6.50;99.90
28835;DHT22;15969;51.536;11.884;2022-11-15T08:20:22;6.60;99.90
28835;DHT22;15969;51.536;11.884;2022-11-15T08:22:48;6.70;99.90
28835;DHT22;15969;51.536;11.884;2022-11-15T08:25:14;6.80;99.90
28835;DHT22;15969;51.536;11.884;2022-11-15T08:27:40;6.90;99.90
28835;DHT22;15969;51.536;11.884;2022-11-15T08:30:06;6.90;99.90
28835;DHT22;15969;51.536;11.884;2022-11-15T08:32:32;7.10;99.90
28835;DHT22;15969;51.536;11.884;2022-11-15T08:34:58;7.20;99.90
28835;DHT22;15969;51.536;11.884;2022-11-15T08:37:24;7.30;99.90
28835;DHT22;15969;51.536;11.884;2022-11-15T08:39:49;7.40;99.90
28835;DHT22;15969;51.536;11.884;2022-11-15T08:42:15;7.50;99.90
28835;DHT22;15969;51.536;11.884;2022-11-15T08:44:41;7.50;99.90
28835;DHT22;15969;51.536;11.884;2022-11-15T08:47:08;7.60;99.90
28835;DHT22;15969;51.536;11.884;2022-11-15T08:49:36;7.70;99.90
28835;DHT22;15969;51.536;11.884;2022-11-15T08:52:02;7.80;99.90
28835;DHT22;15969;51.536;11.884;2022-11-15T08:54:28;7.90;99.90
28835;DHT22;15969;51.536;11.884;2022-11-15T08:56:53;8.00;99.90
28835;DHT22;15969;51.536;11.884;2022-11-15T08:59:19;8.20;99.90
28835;DHT22;15969;51.536;11.884;2022-11-15T09:01:44;8.30;99.90
28835;DHT22;15969;51.536;11.884;2022-11-15T09:04:10;8.30;99.90
28835;DHT22;15969;51.536;11.884;2022-11-15T09:06:36;8.40;99.90
28835;DHT22;15969;51.536;11.884;2022-11-15T09:09:02;8.60;99.90
28835;DHT22;15969;51.536;11.884;2022-11-15T09:11:28;8.60;99.90
28835;DHT22;15969;51.536;11.884;2022-11-15T09:13:54;8.70;99.90
28835;DHT22;15969;51.536;11.884;2022-11-15T09:16:20;8.80;99.90
28835;DHT22;15969;51.536;11.884;2022-11-15T09:18:46;8.90;99.90
28835;DHT22;15969;51.536;11.884;2022-11-15T09:21:12;9.10;99.90
28835;DHT22;15969;51.536;11.884;2022-11-15T09:23:38;9.20;99.90
28835;DHT22;15969;51.536;11.884;2022-11-15T09:26:05;9.30;99.90
28835;DHT22;15969;51.536;11.884;2022-11-15T09:28:32;9.40;99.90
28835;DHT22;15969;51.536;11.884;2022-11-15T09:31:01;9.50;99.90
28835;DHT22;15969;51.536;11.884;2022-11-15T09:33:28;9.60;99.90
28835;DHT22;15969;51.536;11.884;2022-11-15T09:35:56;9.70;99.90
28835;DHT22;15969;51.536;11.884;2022-11-15T09:38:25;9.80;99.90
28835;DHT22;15969;51.536;11.884;2022-11-15T09:40:57;10.00;99.90
28835;DHT22;15969;51.536;11.884;2022-11-15T09:49:31;10.40;99.90
28835;DHT22;15969;51.536;11.884;2022-11-15T09:51:58;10.50;99.90
28835;DHT22;15969;51.536;11.884;2022-11-15T09:54:37;10.60;99.90
28835;DHT22;15969;51.536;11.884;2022-11-15T09:57:18;10.70;99.90
28835;DHT22;15969;51.536;11.884;2022-11-15T10:02:46;11.10;99.90
28835;DHT22;15969;51.536;11.884;2022-11-15T10:05:26;11.20;99.90
28835;DHT22;15969;51.536;11.884;2022-11-15T10:11:17;11.40;99.90
28835;DHT22;15969;51.536;11.884;2022-11-15T10:13:47;11.60;99.90
28835;DHT22;15969;51.536;11.884;2022-11-15T10:19:40;11.80;99.90
28835;DHT22;15969;51.536;11.884;2022-11-15T10:25:16;12.10;99.90
28835;DHT22;15969;51.536;11.884;2022-11-15T10:27:43;12.20;99.90
28835;DHT22;15969;51.536;11.884;2022-11-15T10:30:20;12.20;99.90
28835;DHT22;15969;51.536;11.884;2022-11-15T10:32:47;12.40;99.90
28835;DHT22;15969;51.536;11.884;2022-11-15T10:35:20;12.50;99.90
28835;DHT22;15969;51.536;11.884;2022-11-15T10:37:48;12.50;99.90
28835;DHT22;15969;51.536;11.884;2022-11-15T10:40:22;12.70;99.90
28835;DHT22;15969;51.536;11.884;2022-11-15T10:43:05;12.70;99.90
28835;DHT22;15969;51.536;11.884;2022-11-15T10:45:37;12.80;99.90
28835;DHT22;15969;51.536;11.884;2022-11-15T10:48:23;12.90;99.90
28835;DHT22;15969;51.536;11.884;2022-11-15T10:50:50;13.00;99.90
28835;DHT22;15969;51.536;11.884;2022-11-15T10:53:30;13.10;99.90
28835;DHT22;15969;51.536;11.884;2022-11-15T10:56:03;13.20;99.90
28835;DHT22;15969;51.536;11.884;2022-11-15T10:58:36;13.20;99.90
28835;DHT22;15969;51.536;11.884;2022-11-15T11:01:17;13.30;99.90
28835;DHT22;15969;51.536;11.884;2022-11-15T11:03:57;13.40;99.90
28835;DHT22;15969;51.536;11.884;2022-11-15T11:06:24;13.40;99.90
28835;DHT22;15969;51.536;11.884;2022-11-15T11:09:47;13.50;99.90
28835;DHT22;15969;51.536;11.884;2022-11-15T11:12:11;13.50;99.90
28835;DHT22;15969;51.536;11.884;2022-11-15T11:14:38;13.60;99.90
28835;DHT22;15969;51.536;11.884;2022-11-15T11:20:32;13.70;99.90
28835;DHT22;15969;51.536;11.884;2022-11-15T11:26:34;13.80;99.90
28835;DHT22;15969;51.536;11.884;2022-11-15T11:43:37;14.30;99.90
28835;DHT22;15969;51.536;11.884;2022-11-15T11:46:21;14.30;99.90
28835;DHT22;15969;51.536;11.884;2022-11-15T11:49:12;14.40;99.90
28835;DHT22;15969;51.536;11.884;2022-11-15T11:51:48;14.50;99.90
28835;DHT22;15969;51.536;11.884;2022-11-15T11:55:15;14.60;99.90
28835;DHT22;15969;51.536;11.884;2022-11-15T12:00:54;14.80;99.90
28835;DHT22;15969;51.536;11.884;2022-11-15T12:03:38;14.90;99.90
28835;DHT22;15969;51.536;11.884;2022-11-15T12:09:21;15.20;99.90
28835;DHT22;15969;51.536;11.884;2022-11-15T12:15:20;15.40;99.90
28835;DHT22;15969;51.536;11.884;2022-11-15T12:17:49;15.60;99.90
28835;DHT22;15969;51.536;11.884;2022-11-15T12:20:23;15.70;99.90
28835;DHT22;15969;51.536;11.884;2022-11-15T12:22:58;15.70;99.90
28835;DHT22;15969;51.536;11.884;2022-11-15T12:28:17;15.90;99.90
28835;DHT22;15969;51.536;11.884;2022-11-15T12:31:11;16.10;99.90
28835;DHT22;15969;51.536;11.884;2022-11-15T12:33:46;16.20;99.90
28835;DHT22;15969;51.536;11.884;2022-11-15T12:38:59;16.40;99.90
28835;DHT22;15969;51.536;11.884;2022-11-15T12:41:31;16.50;99.90
28835;DHT22;15969;51.536;11.884;2022-11-15T12:43:58;16.60;99.90
28835;DHT22;15969;51.536;11.884;2022-11-15T12:48:59;16.80;99.50
28835;DHT22;15969;51.536;11.884;2022-11-15T13:02:41;22.70;90.20
28835;DHT22;15969;51.536;11.884;2022-11-15T13:24:04;31.10;54.20
28835;DHT22;15969;51.536;11.884;2022-11-15T13:26:38;31.00;53.20
28835;DHT22;15969;51.536;11.884;2022-11-15T13:29:15;30.40;52.30
28835;DHT22;15969;51.536;11.884;2022-11-15T13:31:43;29.50;53.30
28835;DHT22;15969;51.536;11.884;2022-11-15T13:34:28;27.60;54.00
28835;DHT22;15969;51.536;11.884;2022-11-15T13:36:58;27.30;55.20
28835;DHT22;15969;51.536;11.884;2022-11-15T13:39:32;25.80;57.00
28835;DHT22;15969;51.536;11.884;2022-11-15T13:42:02;24.90;59.70
28835;DHT22;15969;51.536;11.884;2022-11-15T13:44:32;24.20;61.00
28835;DHT22;15969;51.536;11.884;2022-11-15T13:47:04;23.70;62.70
28835;DHT22;15969;51.536;11.884;2022-11-15T13:49:31;23.70;63.20
28835;DHT22;15969;51.536;11.884;2022-11-15T13:52:00;23.90;62.20
28835;DHT22;15969;51.536;11.884;2022-11-15T14:00:06;22.60;64.90
28835;DHT22;15969;51.536;11.884;2022-11-15T14:02:54;22.10;66.20
28835;DHT22;15969;51.536;11.884;2022-11-15T14:05:23;22.40;66.20
28835;DHT22;15969;51.536;11.884;2022-11-15T14:07:55;22.70;65.40
28835;DHT22;15969;51.536;11.884;2022-11-15T14:10:31;22.70;65.60
28835;DHT22;15969;51.536;11.884;2022-11-15T14:12:58;23.00;65.40
28835;DHT22;15969;51.536;11.884;2022-11-15T14:17:56;21.80;67.40
28835;DHT22;15969;51.536;11.884;2022-11-15T14:20:32;21.10;69.10
28835;DHT22;15969;51.536;11.884;2022-11-15T14:23:01;20.50;71.90
28835;DHT22;15969;51.536;11.884;2022-11-15T14:25:31;20.00;74.10
28835;DHT22;15969;51.536;11.884;2022-11-15T14:28:14;19.50;75.20
28835;DHT22;15969;51.536;11.884;2022-11-15T14:30:41;19.00;77.30
28835;DHT22;15969;51.536;11.884;2022-11-15T14:33:38;18.60;79.10
28835;DHT22;15969;51.536;11.884;2022-11-15T14:36:11;18.60;81.10
28835;DHT22;15969;51.536;11.884;2022-11-15T14:38:37;19.10;80.00
28835;DHT22;15969;51.536;11.884;2022-11-15T14:41:03;19.30;79.70
28835;DHT22;15969;51.536;11.884;2022-11-15T14:43:29;19.20;80.10
28835;DHT22;15969;51.536;11.884;2022-11-15T14:45:54;18.80;80.70
28835;DHT22;15969;51.536;11.884;2022-11-15T14:48:20;18.20;81.80
28835;DHT22;15969;51.536;11.884;2022-11-15T14:50:47;17.80;83.90
28835;DHT22;15969;51.536;11.884;2022-11-15T14:53:17;17.40;85.50
28835;DHT22;15969;51.536;11.884;2022-11-15T14:55:43;17.00;87.00
28835;DHT22;15969;51.536;11.884;2022-11-15T14:58:09;16.70;88.70
28835;DHT22;15969;51.536;11.884;2022-11-15T15:00:37;16.40;90.00
28835;DHT22;15969;51.536;11.884;2022-11-15T15:03:04;16.10;90.70
28835;DHT22;15969;51.536;11.884;2022-11-15T15:05:36;15.90;91.30
28835;DHT22;15969;51.536;11.884;2022-11-15T15:08:07;15.70;92.00
28835;DHT22;15969;51.536;11.884;2022-11-15T15:10:44;15.50;92.80
28835;DHT22;15969;51.536;11.884;2022-11-15T15:13:20;15.30;93.60
28835;DHT22;15969;51.536;11.884;2022-11-15T15:15:48;15.10;94.40
28835;DHT22;15969;51.536;11.884;2022-11-15T15:18:15;14.80;95.10
28835;DHT22;15969;51.536;11.884;2022-11-15T15:20:42;14.60;96.10
28835;DHT22;15969;51.536;11.884;2022-11-15T15:23:16;14.40;96.80
28835;DHT22;15969;51.536;11.884;2022-11-15T15:25:44;14.30;97.70
28835;DHT22;15969;51.536;11.884;2022-11-15T15:28:11;14.10;98.50
28835;DHT22;15969;51.536;11.884;2022-11-15T15:30:37;13.90;99.30
28835;DHT22;15969;51.536;11.884;2022-11-15T15:33:03;13.70;99.80
28835;DHT22;15969;51.536;11.884;2022-11-15T15:35:33;13.60;99.90
28835;DHT22;15969;51.536;11.884;2022-11-15T15:38:00;13.50;99.90
28835;DHT22;15969;51.536;11.884;2022-11-15T15:40:28;13.40;99.90
28835;DHT22;15969;51.536;11.884;2022-11-15T15:42:55;13.20;99.90
28835;DHT22;15969;51.536;11.884;2022-11-15T15:45:20;13.10;99.90
28835;DHT22;15969;51.536;11.884;2022-11-15T15:47:47;12.90;99.90
28835;DHT22;15969;51.536;11.884;2022-11-15T15:50:17;12.70;99.90
28835;DHT22;15969;51.536;11.884;2022-11-15T15:52:48;12.60;99.90
28835;DHT22;15969;51.536;11.884;2022-11-15T15:55:14;12.50;99.90
28835;DHT22;15969;51.536;11.884;2022-11-15T15:57:40;12.40;99.90
28835;DHT22;15969;51.536;11.884;2022-11-15T16:00:06;12.30;99.90
28835;DHT22;15969;51.536;11.884;2022-11-15T16:02:33;12.20;99.90
28835;DHT22;15969;51.536;11.884;2022-11-15T16:04:58;12.00;99.90
28835;DHT22;15969;51.536;11.884;2022-11-15T16:07:24;11.90;99.90
28835;DHT22;15969;51.536;11.884;2022-11-15T16:09:50;11.70;99.90
28835;DHT22;15969;51.536;11.884;2022-11-15T16:12:29;11.60;99.90
28835;DHT22;15969;51.536;11.884;2022-11-15T16:14:56;11.50;99.90
28835;DHT22;15969;51.536;11.884;2022-11-15T16:17:30;11.30;99.90
28835;DHT22;15969;51.536;11.884;2022-11-15T16:19:57;11.20;99.90
28835;DHT22;15969;51.536;11.884;2022-11-15T16:22:23;11.10;99.90
28835;DHT22;15969;51.536;11.884;2022-11-15T16:24:49;11.00;99.90
28835;DHT22;15969;51.536;11.884;2022-11-15T16:27:16;10.80;99.90
28835;DHT22;15969;51.536;11.884;2022-11-15T16:29:45;10.70;99.90
28835;DHT22;15969;51.536;11.884;2022-11-15T16:32:11;10.60;99.90
28835;DHT22;15969;51.536;11.884;2022-11-15T16:34:37;10.60;99.90
28835;DHT22;15969;51.536;11.884;2022-11-15T16:37:04;10.40;99.90
28835;DHT22;15969;51.536;11.884;2022-11-15T16:39:30;10.30;99.90
28835;DHT22;15969;51.536;11.884;2022-11-15T16:41:57;10.30;99.90
28835;DHT22;15969;51.536;11.884;2022-11-15T16:44:23;10.20;99.90
28835;DHT22;15969;51.536;11.884;2022-11-15T16:46:49;10.20;99.90
28835;DHT22;15969;51.536;11.884;2022-11-15T16:49:17;10.10;99.90
28835;DHT22;15969;51.536;11.884;2022-11-15T16:51:48;10.00;99.90
28835;DHT22;15969;51.536;11.884;2022-11-15T16:54:15;10.00;99.90
28835;DHT22;15969;51.536;11.884;2022-11-15T16:56:41;10.00;99.90
28835;DHT22;15969;51.536;11.884;2022-11-15T16:59:10;9.90;99.90
28835;DHT22;15969;51.536;11.884;2022-11-15T17:01:41;9.80;99.90
28835;DHT22;15969;51.536;11.884;2022-11-15T17:04:17;9.70;99.90
28835;DHT22;15969;51.536;11.884;2022-11-15T17:06:45;9.60;99.90
28835;DHT22;15969;51.536;11.884;2022-11-15T17:09:17;9.60;99.90
28835;DHT22;15969;51.536;11.884;2022-11-15T17:11:50;9.50;99.90
28835;DHT22;15969;51.536;11.884;2022-11-15T17:14:17;9.50;99.90
28835;DHT22;15969;51.536;11.884;2022-11-15T17:16:43;9.50;99.90
28835;DHT22;15969;51.536;11.884;2022-11-15T17:19:19;9.50;99.90
28835;DHT22;15969;51.536;11.884;2022-11-15T17:21:46;9.40;99.90
28835;DHT22;15969;51.536;11.884;2022-11-15T17:24:14;9.40;99.90
28835;DHT22;15969;51.536;11.884;2022-11-15T17:26:39;9.40;99.90
28835;DHT22;15969;51.536;11.884;2022-11-15T17:29:07;9.40;99.90
28835;DHT22;15969;51.536;11.884;2022-11-15T17:31:34;9.40;99.90
28835;DHT22;15969;51.536;11.884;2022-11-15T17:34:01;9.40;99.90
28835;DHT22;15969;51.536;11.884;2022-11-15T17:36:28;9.40;99.90
28835;DHT22;15969;51.536;11.884;2022-11-15T17:38:54;9.50;99.90
28835;DHT22;15969;51.536;11.884;2022-11-15T17:41:20;9.40;99.90
28835;DHT22;15969;51.536;11.884;2022-11-15T17:43:46;9.50;99.90
28835;DHT22;15969;51.536;11.884;2022-11-15T17:46:17;9.50;99.90